createdAt,value
2022-09-12T00:01:15.643Z,5.80
2022-09-12T00:04:01.983Z,4.40
2022-09-12T00:06:46.992Z,5.27
2022-09-12T00:09:31.877Z,4.67
2022-09-12T00:12:17.096Z,5.13
2022-09-12T00:15:02.242Z,6.33
2022-09-12T00:17:47.479Z,5.33
2022-09-12T00:20:32.531Z,4.80
2022-09-12T00:23:17.745Z,5.33
2022-09-12T00:26:06.432Z,5.17
2022-09-12T00:28:51.793Z,5.10
2022-09-12T00:31:36.811Z,4.73
2022-09-12T00:34:21.870Z,5.47
2022-09-12T00:37:06.942Z,5.67
2022-09-12T00:39:52.082Z,5.30
2022-09-12T00:42:36.996Z,5.37
2022-09-12T00:45:29.486Z,4.77
2022-09-12T00:48:32.162Z,5.20
2022-09-12T00:51:19.535Z,4.53
2022-09-12T00:54:09.596Z,4.93
2022-09-12T00:57:01.758Z,5.53
2022-09-12T01:00:00.547Z,5.07
2022-09-12T01:02:50.423Z,5.17
2022-09-12T01:05:39.774Z,4.97
2022-09-12T01:08:25.816Z,4.30
2022-09-12T01:11:13.154Z,4.20
2022-09-12T01:13:59.644Z,4.77
2022-09-12T01:16:45.500Z,4.20
2022-09-12T01:19:52.178Z,4.07
2022-09-12T01:23:14.164Z,5.43
2022-09-12T01:26:12.215Z,4.57
2022-09-12T01:29:34.857Z,3.90
2022-09-12T01:32:45.056Z,4.03
2022-09-12T01:35:57.692Z,4.67
2022-09-12T01:38:59.185Z,4.07
2022-09-12T01:42:18.572Z,3.77
2022-09-12T01:45:16.643Z,3.57
2022-09-12T01:48:14.580Z,3.50
2022-09-12T01:51:11.322Z,4.27
2022-09-12T01:54:20.829Z,3.67
2022-09-12T01:57:14.129Z,3.70
2022-09-12T02:00:04.824Z,3.20
2022-09-12T02:03:09.909Z,4.27
2022-09-12T02:06:08.244Z,3.83
2022-09-12T02:08:58.577Z,4.30
2022-09-12T02:11:46.037Z,4.07
2022-09-12T02:14:36.648Z,3.63
2022-09-12T02:17:26.587Z,3.63
2022-09-12T02:20:44.040Z,3.33
2022-09-12T02:23:32.015Z,3.53
2022-09-12T02:26:25.398Z,3.63
2022-09-12T02:29:11.510Z,3.70
2022-09-12T02:32:06.057Z,3.50
2022-09-12T02:35:08.399Z,4.00
2022-09-12T02:38:00.955Z,2.77
2022-09-12T02:40:46.181Z,3.43
2022-09-12T02:43:31.362Z,3.47
2022-09-12T02:46:23.340Z,3.30
2022-09-12T02:49:09.562Z,3.40
2022-09-12T02:51:55.738Z,3.37
2022-09-12T02:54:41.037Z,3.00
2022-09-12T02:57:26.313Z,3.50
2022-09-12T03:00:12.365Z,3.10
2022-09-12T03:03:27.821Z,3.13
2022-09-12T03:06:42.284Z,2.83
2022-09-12T03:09:29.973Z,3.87
2022-09-12T03:12:21.378Z,3.37
2022-09-12T03:15:24.658Z,3.40
2022-09-12T03:18:34.680Z,3.20
2022-09-12T03:21:47.106Z,3.10
2022-09-12T03:24:34.555Z,3.60
2022-09-12T03:27:41.824Z,3.70
2022-09-12T03:30:27.453Z,2.83
2022-09-12T03:33:23.287Z,3.20
2022-09-12T03:36:17.274Z,3.03
2022-09-12T03:39:02.449Z,3.20
2022-09-12T03:41:47.359Z,3.00
2022-09-12T03:44:32.240Z,3.10
2022-09-12T03:47:17.092Z,3.30
2022-09-12T03:50:02.680Z,2.90
2022-09-12T03:52:47.951Z,2.97
2022-09-12T03:55:32.886Z,2.63
2022-09-12T03:58:17.810Z,3.13
2022-09-12T04:01:12.624Z,2.83
2022-09-12T04:03:57.577Z,2.67
2022-09-12T04:06:43.044Z,2.60
2022-09-12T04:09:27.992Z,3.00
2022-09-12T04:12:13.966Z,2.50
2022-09-12T04:14:58.833Z,2.40
2022-09-12T04:17:43.663Z,2.63
2022-09-12T04:20:28.773Z,2.53
2022-09-12T04:23:13.875Z,2.83
2022-09-12T04:26:00.689Z,2.40
2022-09-12T04:28:46.504Z,2.60
2022-09-12T04:31:31.582Z,2.50
2022-09-12T04:34:16.750Z,2.70
2022-09-12T04:37:01.751Z,2.70
2022-09-12T04:39:48.448Z,2.60
2022-09-12T04:42:33.663Z,2.83
2022-09-12T04:45:19.103Z,2.60
2022-09-12T04:48:04.406Z,2.40
2022-09-12T04:50:49.823Z,2.53
2022-09-12T04:53:35.853Z,2.80
2022-09-12T04:56:21.841Z,2.47
2022-09-12T04:59:07.283Z,2.17
2022-09-12T05:01:52.802Z,2.53
2022-09-12T05:04:37.870Z,2.30
2022-09-12T05:07:22.962Z,2.43
2022-09-12T05:10:08.965Z,2.40
2022-09-12T05:12:54.470Z,2.40
2022-09-12T05:15:39.935Z,2.10
2022-09-12T05:18:26.453Z,2.20
2022-09-12T05:21:14.619Z,2.20
2022-09-12T05:24:00.081Z,2.17
2022-09-12T05:26:44.978Z,1.90
2022-09-12T05:29:29.795Z,2.30
2022-09-12T05:32:14.634Z,2.17
2022-09-12T05:35:00.261Z,2.33
2022-09-12T05:37:45.429Z,2.13
2022-09-12T05:40:30.632Z,1.90
2022-09-12T05:43:15.731Z,1.90
2022-09-12T05:46:02.247Z,2.20
2022-09-12T05:48:51.460Z,2.00
2022-09-12T05:51:41.483Z,1.80
2022-09-12T05:54:31.389Z,2.10
2022-09-12T05:57:18.436Z,1.80
2022-09-12T06:00:05.968Z,2.13
2022-09-12T06:02:57.195Z,1.90
2022-09-12T06:05:42.528Z,1.73
2022-09-12T06:08:27.845Z,3.30
2022-09-12T06:11:15.786Z,5.83
2022-09-12T06:14:02.025Z,16.00
2022-09-12T06:16:48.642Z,28.53
2022-09-12T06:19:34.478Z,29.50
2022-09-12T06:22:20.150Z,38.17
2022-09-12T06:25:05.853Z,64.93
2022-09-12T06:27:51.617Z,45.27
2022-09-12T06:30:36.971Z,51.53
2022-09-12T06:33:22.203Z,55.67
2022-09-12T06:36:12.524Z,56.53
2022-09-12T06:39:00.986Z,73.53
2022-09-12T06:41:46.711Z,83.50
2022-09-12T06:44:32.411Z,70.50
2022-09-12T06:47:17.679Z,101.20
2022-09-12T06:50:02.510Z,98.67
2022-09-12T06:52:49.210Z,92.87
2022-09-12T06:55:34.762Z,101.20
2022-09-12T06:58:19.843Z,120.17
2022-09-12T07:01:07.903Z,133.10
2022-09-12T07:03:59.244Z,115.67
2022-09-12T07:06:44.866Z,127.83
2022-09-12T07:09:30.822Z,116.53
2022-09-12T07:12:16.054Z,131.97
2022-09-12T07:15:01.098Z,127.17
2022-09-12T07:17:46.246Z,131.47
2022-09-12T07:20:33.064Z,137.77
2022-09-12T07:23:18.162Z,139.70
2022-09-12T07:26:03.519Z,152.07
2022-09-12T07:28:54.500Z,153.63
2022-09-12T07:31:39.977Z,155.33
2022-09-12T07:34:25.317Z,156.57
2022-09-12T07:37:10.578Z,160.87
2022-09-12T07:39:56.210Z,156.83
2022-09-12T07:42:41.435Z,173.77
2022-09-12T07:45:27.039Z,150.57
2022-09-12T07:48:12.485Z,147.03
2022-09-12T07:50:59.759Z,161.83
2022-09-12T07:53:45.753Z,167.80
2022-09-12T07:56:33.612Z,174.50
2022-09-12T07:59:41.556Z,167.00
2022-09-12T08:02:26.154Z,170.00
2022-09-12T08:05:11.431Z,179.87
2022-09-12T08:07:57.823Z,186.47
2022-09-12T08:10:43.055Z,191.50
2022-09-12T08:13:29.786Z,195.90
2022-09-12T08:16:21.420Z,195.97
2022-09-12T08:19:06.336Z,205.93
2022-09-12T08:21:51.402Z,252.77
2022-09-12T08:24:36.922Z,364.77
2022-09-12T08:27:22.026Z,479.70
2022-09-12T08:30:07.589Z,464.67
2022-09-12T08:32:52.581Z,500.77
2022-09-12T08:35:37.476Z,533.10
2022-09-12T08:38:23.131Z,567.13
2022-09-12T08:41:35.751Z,551.13
2022-09-12T08:44:40.796Z,568.80
2022-09-12T08:47:33.863Z,561.57
2022-09-12T08:50:22.226Z,543.00
2022-09-12T08:53:18.638Z,529.13
2022-09-12T08:56:06.454Z,525.03
2022-09-12T08:58:51.738Z,516.00
2022-09-12T09:01:45.469Z,508.60
2022-09-12T09:04:36.458Z,511.40
2022-09-12T09:07:54.995Z,503.97
2022-09-12T09:10:49.161Z,485.47
2022-09-12T09:14:22.564Z,495.67
2022-09-12T09:17:15.768Z,489.17
2022-09-12T09:20:23.205Z,487.20
2022-09-12T09:23:28.437Z,491.77
2022-09-12T09:26:15.249Z,487.83
2022-09-12T09:29:14.546Z,477.97
2022-09-12T09:32:03.399Z,475.00
2022-09-12T09:34:48.329Z,483.83
2022-09-12T09:37:43.394Z,480.00
2022-09-12T09:40:49.926Z,472.03
2022-09-12T09:43:37.714Z,475.00
2022-09-12T09:46:22.694Z,474.07
2022-09-12T09:49:13.005Z,465.67
2022-09-12T09:52:00.849Z,465.17
2022-09-12T09:54:57.597Z,468.83
2022-09-12T09:57:46.724Z,459.73
2022-09-12T10:00:34.389Z,463.77
2022-09-12T10:03:28.655Z,459.17
2022-09-12T10:06:23.001Z,450.93
2022-09-12T10:09:22.446Z,448.27
2022-09-12T10:12:28.292Z,442.40
2022-09-12T10:15:18.042Z,447.30
2022-09-12T10:18:04.335Z,442.93
2022-09-12T10:20:49.247Z,438.87
2022-09-12T10:23:37.270Z,428.53
2022-09-12T10:26:22.362Z,415.83
2022-09-12T10:29:25.579Z,409.47
2022-09-12T10:32:12.601Z,401.50
2022-09-12T10:35:01.885Z,393.83
2022-09-12T10:38:05.925Z,394.83
2022-09-12T10:41:05.410Z,410.03
2022-09-12T10:43:50.658Z,389.77
2022-09-12T10:46:35.878Z,383.33
2022-09-12T10:49:26.083Z,381.57
2022-09-12T10:52:23.068Z,369.03
2022-09-12T10:55:15.699Z,366.73
2022-09-12T10:58:32.788Z,356.43
2022-09-12T11:01:20.686Z,350.87
2022-09-12T11:04:30.775Z,346.83
2022-09-12T11:07:39.354Z,335.90
2022-09-12T11:10:54.680Z,328.23
2022-09-12T11:13:54.418Z,328.13
2022-09-12T11:17:13.263Z,315.60
2022-09-12T11:20:13.804Z,311.17
2022-09-12T11:23:01.926Z,322.23
2022-09-12T11:26:04.959Z,315.67
2022-09-12T11:29:08.830Z,316.37
2022-09-12T11:31:56.750Z,310.07
2022-09-12T11:34:59.775Z,304.40
2022-09-12T11:37:51.183Z,307.03
2022-09-12T11:40:56.433Z,307.53
2022-09-12T11:43:46.784Z,290.73
2022-09-12T11:46:40.138Z,295.33
2022-09-12T11:49:43.971Z,294.20
2022-09-12T11:52:37.079Z,293.13
2022-09-12T11:55:28.071Z,283.67
2022-09-12T11:58:14.158Z,288.90
2022-09-12T12:01:09.169Z,290.27
2022-09-12T12:03:55.473Z,286.50
2022-09-12T12:07:05.931Z,277.13
2022-09-12T12:09:52.787Z,262.73
2022-09-12T12:12:38.352Z,263.27
2022-09-12T12:15:25.568Z,265.27
2022-09-12T12:18:24.313Z,268.47
2022-09-12T12:21:21.578Z,271.53
2022-09-12T12:24:09.815Z,266.73
2022-09-12T12:27:03.715Z,262.80
2022-09-12T12:29:48.918Z,256.63
2022-09-12T12:32:33.849Z,252.23
2022-09-12T12:35:57.647Z,252.57
2022-09-12T12:38:42.527Z,223.13
2022-09-12T12:41:27.910Z,213.63
2022-09-12T12:44:44.499Z,208.97
2022-09-12T12:47:38.529Z,227.47
2022-09-12T12:50:26.834Z,239.33
2022-09-12T12:53:23.082Z,251.73
2022-09-12T12:56:27.745Z,270.17
2022-09-12T12:59:19.900Z,277.47
2022-09-12T13:02:05.576Z,297.10
2022-09-12T13:04:51.717Z,294.73
2022-09-12T13:07:40.252Z,300.60
2022-09-12T13:10:29.224Z,306.27
2022-09-12T13:13:25.458Z,342.90
2022-09-12T13:16:11.569Z,363.03
2022-09-12T13:19:02.074Z,364.37
2022-09-12T13:22:07.798Z,374.10
2022-09-12T13:24:52.978Z,399.03
2022-09-12T13:27:38.210Z,408.00
2022-09-12T13:30:23.722Z,420.77
2022-09-12T13:33:26.537Z,432.07
2022-09-12T13:36:42.435Z,451.47
2022-09-12T13:39:29.578Z,463.17
2022-09-12T13:42:49.267Z,471.20
2022-09-12T13:45:39.230Z,489.27
2022-09-12T13:48:25.439Z,507.53
2022-09-12T13:51:24.117Z,506.00
2022-09-12T13:54:21.324Z,519.63
2022-09-12T13:57:41.300Z,534.60
2022-09-12T14:00:28.276Z,550.57
2022-09-12T14:03:58.953Z,564.37
2022-09-12T14:06:52.589Z,591.03
2022-09-12T14:09:40.455Z,596.57
2022-09-12T14:12:30.207Z,573.80
2022-09-12T14:15:26.468Z,526.37
2022-09-12T14:18:23.356Z,500.27
2022-09-12T14:21:12.675Z,405.47
2022-09-12T14:24:00.673Z,290.03
2022-09-12T14:26:46.370Z,169.00
2022-09-12T14:29:33.274Z,152.83
2022-09-12T14:32:26.198Z,124.23
2022-09-12T14:35:11.348Z,94.63
2022-09-12T14:37:56.721Z,69.07
2022-09-12T14:40:44.489Z,61.53
2022-09-12T14:43:33.373Z,51.53
2022-09-12T14:46:23.249Z,43.53
2022-09-12T14:49:34.466Z,31.50
2022-09-12T14:52:33.083Z,24.80
2022-09-12T14:55:20.637Z,20.23
2022-09-12T14:58:22.391Z,16.90
2022-09-12T15:01:07.261Z,16.73
2022-09-12T15:03:55.365Z,17.93
2022-09-12T15:06:41.035Z,17.47
2022-09-12T15:09:26.897Z,17.63
2022-09-12T15:12:12.082Z,15.43
2022-09-12T15:15:03.275Z,10.03
2022-09-12T15:17:48.640Z,8.77
2022-09-12T15:20:37.266Z,8.67
2022-09-12T15:23:38.054Z,8.73
2022-09-12T15:26:27.375Z,8.97
2022-09-12T15:29:12.594Z,8.37
2022-09-12T15:31:57.519Z,9.30
2022-09-12T15:34:42.790Z,8.87
2022-09-12T15:37:28.282Z,8.93
2022-09-12T15:40:13.943Z,8.60
2022-09-12T15:43:00.114Z,8.67
2022-09-12T15:45:46.819Z,8.90
2022-09-12T15:48:33.125Z,9.60
2022-09-12T15:51:21.309Z,8.20
2022-09-12T15:54:06.463Z,9.37
2022-09-12T15:56:51.651Z,8.37
2022-09-12T15:59:37.095Z,8.10
2022-09-12T16:02:22.099Z,9.03
2022-09-12T16:05:14.994Z,8.67
2022-09-12T16:08:00.299Z,9.00
2022-09-12T16:10:55.795Z,7.87
2022-09-12T16:13:40.925Z,9.23
2022-09-12T16:16:25.974Z,9.37
2022-09-12T16:19:12.208Z,9.40
2022-09-12T16:21:56.989Z,8.40
2022-09-12T16:24:41.970Z,8.53
2022-09-12T16:27:26.747Z,9.30
2022-09-12T16:30:12.981Z,8.30
2022-09-12T16:32:58.390Z,8.07
2022-09-12T16:35:43.638Z,8.50
2022-09-12T16:38:28.803Z,9.07
2022-09-12T16:41:14.878Z,7.63
2022-09-12T16:44:00.124Z,7.97
2022-09-12T16:46:46.057Z,8.57
2022-09-12T16:49:31.498Z,8.90
2022-09-12T16:52:17.311Z,8.30
2022-09-12T16:55:02.294Z,8.50
2022-09-12T16:57:49.274Z,8.23
2022-09-12T17:00:34.229Z,7.60
2022-09-12T17:03:19.094Z,8.60
2022-09-12T17:06:09.621Z,8.33
2022-09-12T17:08:58.015Z,8.43
2022-09-12T17:11:43.226Z,8.77
2022-09-12T17:14:28.210Z,8.20
2022-09-12T17:17:13.119Z,8.47
2022-09-12T17:19:58.006Z,8.67
2022-09-12T17:22:43.035Z,8.43
2022-09-12T17:25:27.841Z,8.67
2022-09-12T17:28:12.746Z,8.40
2022-09-12T17:30:59.600Z,8.07
2022-09-12T17:33:45.183Z,7.73
2022-09-12T17:36:31.874Z,8.63
2022-09-12T17:39:16.907Z,8.60
2022-09-12T17:42:01.912Z,7.87
2022-09-12T17:44:46.742Z,7.93
2022-09-12T17:47:31.632Z,8.13
2022-09-12T17:50:31.444Z,8.37
2022-09-12T17:53:17.828Z,8.47
2022-09-12T17:56:05.137Z,8.90
2022-09-12T17:58:50.113Z,8.37
2022-09-12T18:01:53.807Z,7.47
2022-09-12T18:04:47.118Z,8.20
2022-09-12T18:07:33.098Z,8.30
2022-09-12T18:10:17.937Z,7.90
2022-09-12T18:13:02.912Z,8.60
2022-09-12T18:15:48.098Z,8.77
2022-09-12T18:18:34.435Z,8.67
2022-09-12T18:21:19.805Z,8.83
2022-09-12T18:24:05.379Z,9.07
2022-09-12T18:26:50.730Z,7.83
2022-09-12T18:29:35.900Z,8.20
2022-09-12T18:32:20.814Z,7.83
2022-09-12T18:35:07.359Z,7.93
2022-09-12T18:37:52.159Z,8.40
2022-09-12T18:40:37.071Z,8.13
2022-09-12T18:43:22.011Z,8.43
2022-09-12T18:46:09.281Z,8.37
2022-09-12T18:48:57.602Z,8.20
2022-09-12T18:51:42.901Z,7.87
2022-09-12T18:54:28.119Z,7.77
2022-09-12T18:57:13.431Z,7.87
2022-09-12T18:59:59.558Z,8.20
2022-09-12T19:02:44.724Z,8.47
2022-09-12T19:05:29.427Z,8.33
2022-09-12T19:08:14.238Z,8.23
2022-09-12T19:10:59.161Z,8.30
2022-09-12T19:13:46.037Z,8.20
2022-09-12T19:16:31.866Z,7.90
2022-09-12T19:19:17.035Z,7.97
2022-09-12T19:22:02.246Z,7.63
2022-09-12T19:24:47.109Z,8.50
2022-09-12T19:27:32.070Z,8.20
2022-09-12T19:30:17.145Z,7.93
2022-09-12T19:33:03.001Z,7.87
2022-09-12T19:35:48.833Z,7.70
2022-09-12T19:38:34.504Z,7.90
2022-09-12T19:41:20.319Z,7.70
2022-09-12T19:44:05.562Z,8.10
2022-09-12T19:46:51.034Z,7.63
2022-09-12T19:49:36.299Z,8.27
2022-09-12T19:52:21.230Z,7.40
2022-09-12T19:55:06.794Z,7.33
2022-09-12T19:57:52.011Z,7.73
2022-09-12T20:00:37.293Z,7.97
2022-09-12T20:03:25.429Z,7.80
2022-09-12T20:06:13.263Z,7.97
2022-09-12T20:08:58.822Z,7.93
2022-09-12T20:11:43.772Z,6.63
2022-09-12T20:14:28.620Z,7.53
2022-09-12T20:17:13.480Z,8.13
2022-09-12T20:19:58.408Z,7.10
2022-09-12T20:22:43.403Z,7.27
2022-09-12T20:25:28.314Z,7.00
2022-09-12T20:28:13.145Z,7.07
2022-09-12T20:31:15.243Z,7.60
2022-09-12T20:34:00.433Z,7.13
2022-09-12T20:36:46.558Z,6.80
2022-09-12T20:39:31.322Z,6.97
2022-09-12T20:42:16.208Z,7.20
2022-09-12T20:45:01.019Z,6.70
2022-09-12T20:47:45.920Z,6.60
2022-09-12T20:50:31.246Z,7.03
2022-09-12T20:53:16.633Z,7.80
2022-09-12T20:56:01.897Z,7.03
2022-09-12T20:58:46.830Z,6.53
2022-09-12T21:01:32.677Z,6.80
2022-09-12T21:04:18.514Z,6.87
2022-09-12T21:07:03.477Z,7.70
2022-09-12T21:09:48.405Z,6.87
2022-09-12T21:12:33.458Z,6.87
2022-09-12T21:15:18.695Z,6.87
2022-09-12T21:18:04.279Z,6.73
2022-09-12T21:20:53.388Z,7.37
2022-09-12T21:23:39.271Z,7.17
2022-09-12T21:26:24.510Z,7.10
2022-09-12T21:29:09.427Z,6.70
2022-09-12T21:31:54.446Z,7.03
2022-09-12T21:34:41.648Z,6.43
2022-09-12T21:37:27.385Z,6.27
2022-09-12T21:40:12.297Z,6.33
2022-09-12T21:42:58.299Z,6.93
2022-09-12T21:45:43.591Z,6.60
2022-09-12T21:48:28.915Z,6.30
2022-09-12T21:51:13.813Z,6.30
2022-09-12T21:53:58.702Z,7.17
2022-09-12T21:56:43.941Z,6.57
2022-09-12T21:59:29.210Z,6.60
2022-09-12T22:02:15.540Z,6.73
2022-09-12T22:05:00.544Z,6.13
2022-09-12T22:07:45.391Z,6.70
2022-09-12T22:10:30.547Z,6.67
2022-09-12T22:13:15.828Z,6.10
2022-09-12T22:16:02.881Z,6.80
2022-09-12T22:18:50.583Z,6.27
2022-09-12T22:21:55.514Z,6.30
2022-09-12T22:24:40.445Z,5.87
2022-09-12T22:27:25.606Z,6.17
2022-09-12T22:30:11.698Z,6.23
2022-09-12T22:32:56.545Z,6.47
2022-09-12T22:35:42.341Z,6.03
2022-09-12T22:38:27.901Z,6.17
2022-09-12T22:41:13.220Z,5.73
2022-09-12T22:43:58.461Z,6.00
2022-09-12T22:46:44.374Z,5.53
2022-09-12T22:49:29.595Z,6.10
2022-09-12T22:52:16.159Z,5.90
2022-09-12T22:55:01.448Z,6.50
2022-09-12T22:57:46.281Z,5.90
2022-09-12T23:00:31.934Z,5.70
2022-09-12T23:03:18.719Z,6.43
2022-09-12T23:06:05.033Z,6.07
2022-09-12T23:08:50.599Z,5.70
2022-09-12T23:11:35.513Z,5.37
2022-09-12T23:14:20.533Z,5.83
2022-09-12T23:17:05.850Z,6.10
2022-09-12T23:19:50.764Z,5.87
2022-09-12T23:22:37.071Z,6.00
2022-09-12T23:25:23.546Z,6.10
2022-09-12T23:28:08.369Z,5.57
2022-09-12T23:30:56.878Z,6.07
2022-09-12T23:33:41.750Z,5.73
2022-09-12T23:36:27.118Z,5.40
2022-09-12T23:39:12.678Z,5.93
2022-09-12T23:41:57.834Z,6.00
2022-09-12T23:44:42.838Z,6.00
2022-09-12T23:47:27.875Z,6.07
2022-09-12T23:50:13.077Z,5.67
2022-09-12T23:52:57.855Z,4.80
2022-09-12T23:55:44.693Z,5.30
2022-09-12T23:58:32.905Z,5.63
